Weitere Informationen folgen in Kürze ...

Flugwetter Augsburg

[source: ADDS]
METAR
EDMA 021920Z 11001KT CAVOK 17/07 Q1013 =
TAF EDMA 021700Z 0218/0303 VRB03KT CAVOK
TAF
TAF EDMA 021700Z 0218/0303 VRB03KT CAVOK =
Cookies erleichtern die Bereitstellung unserer Dienste. Mit der Nutzung unserer Dienste erklären Sie sich damit einverstanden, dass wir Cookies verwenden.
Weitere Informationen Ok